Time;durP1;ratioP1;P1;durP2;ratioP2;P2;SDS_P1;SDS_P2;PMS_P1;PMS_P2;Temp;Humidity;BMP_temperature;BMP_pressure;BME280_temperature;BME280_humidity;BME280_pressure;Samples;Min_cycle;Max_cycle;Signal;HPM_P1;HPM_P2
2022/08/16 00:01:27;;;;;;;10.20;6.63;;;22.90;38.60;;;;;;5087950;28;20289;-73
2022/08/16 00:03:53;;;;;;;7.50;6.80;;;22.90;38.20;;;;;;5089449;28;20178;-73
2022/08/16 00:06:20;;;;;;;14.70;8.67;;;22.90;38.90;;;;;;5094110;28;20196;-73
2022/08/16 00:08:45;;;;;;;9.60;7.30;;;22.80;38.60;;;;;;5093203;28;20790;-73
2022/08/16 00:11:11;;;;;;;9.47;7.30;;;22.70;38.70;;;;;;5093503;28;20430;-73
2022/08/16 00:13:38;;;;;;;8.30;6.20;;;22.60;38.70;;;;;;5093740;28;20306;-73
2022/08/16 00:16:04;;;;;;;9.90;6.10;;;22.70;38.90;;;;;;5091577;28;20440;-73
2022/08/16 00:18:30;;;;;;;7.30;5.70;;;22.50;38.40;;;;;;5085135;28;20435;-72
2022/08/16 00:20:56;;;;;;;9.90;6.07;;;22.00;39.60;;;;;;5093100;28;20488;-73
2022/08/16 00:23:21;;;;;;;9.40;5.70;;;21.80;40.80;;;;;;5093847;28;20796;-72
2022/08/16 00:25:47;;;;;;;9.63;6.10;;;22.10;40.10;;;;;;5093966;28;20438;-73
2022/08/16 00:28:13;;;;;;;9.73;6.40;;;21.90;40.50;;;;;;5091911;28;20244;-73
2022/08/16 00:30:39;;;;;;;7.83;5.97;;;22.10;39.90;;;;;;5093613;28;20258;-73
2022/08/16 00:33:04;;;;;;;10.67;6.20;;;22.10;40.00;;;;;;5093379;28;20226;-73
2022/08/16 00:35:34;;;;;;;9.03;6.03;;;22.00;40.40;;;;;;5093481;28;20829;-73
2022/08/16 00:38:03;;;;;;;10.40;5.77;;;22.10;40.40;;;;;;5093719;28;20203;-73
2022/08/16 00:40:41;;;;;;;12.20;6.50;;;21.80;40.60;;;;;;5092111;28;20488;-73
2022/08/16 00:43:17;;;;;;;9.47;6.30;;;22.00;41.50;;;;;;5090874;28;20474;-73
2022/08/16 00:46:08;;;;;;;8.60;6.23;;;22.20;41.30;;;;;;5093527;28;20757;-73
2022/08/16 00:48:34;;;;;;;14.53;6.90;;;22.30;40.50;;;;;;5093567;28;20403;-73
2022/08/16 00:51:01;;;;;;;12.20;6.90;;;22.40;40.20;;;;;;5091032;28;20420;-73
2022/08/16 00:53:27;;;;;;;7.67;6.73;;;22.40;39.90;;;;;;5092822;28;20703;-73
2022/08/16 00:55:55;;;;;;;12.80;8.07;;;22.50;40.20;;;;;;5093304;28;20490;-73
2022/08/16 00:58:25;;;;;;;11.50;9.60;;;22.40;39.40;;;;;;5083649;28;20452;-72
2022/08/16 01:00:51;;;;;;;17.80;8.40;;;22.20;39.60;;;;;;5092316;28;20446;-72
2022/08/16 01:03:20;;;;;;;11.53;7.37;;;22.20;39.50;;;;;;5092792;28;20472;-72
2022/08/16 01:05:47;;;;;;;11.37;6.87;;;22.40;39.50;;;;;;5091605;28;20535;-72
2022/08/16 01:08:15;;;;;;;10.97;7.03;;;22.60;39.20;;;;;;5091162;28;20459;-72
2022/08/16 01:10:41;;;;;;;12.70;7.60;;;22.60;38.10;;;;;;5084082;28;20462;-72
2022/08/16 01:13:12;;;;;;;8.10;6.90;;;22.70;39.00;;;;;;5091919;28;20426;-72
2022/08/16 01:15:45;;;;;;;9.40;7.20;;;22.70;38.60;;;;;;5092626;28;20170;-72
2022/08/16 01:18:16;;;;;;;9.70;6.40;;;22.60;38.20;;;;;;5090812;28;20531;-72
2022/08/16 01:20:52;;;;;;;11.93;6.20;;;22.50;38.80;;;;;;5092777;28;20408;-73
2022/08/16 01:23:34;;;;;;;11.53;6.50;;;22.40;38.90;;;;;;5092156;28;20846;-73
2022/08/16 01:26:00;;;;;;;8.43;6.17;;;22.40;39.30;;;;;;5092533;28;20408;-72
2022/08/16 01:28:27;;;;;;;11.30;6.63;;;22.40;39.00;;;;;;5091161;28;20919;-72
2022/08/16 01:30:56;;;;;;;10.63;6.90;;;22.40;39.00;;;;;;5091939;28;20414;-72
2022/08/16 01:33:22;;;;;;;11.07;6.40;;;22.20;39.20;;;;;;5092002;28;20414;-72
2022/08/16 01:35:53;;;;;;;9.10;6.60;;;22.40;38.60;;;;;;5092473;28;20398;-72
2022/08/16 01:38:27;;;;;;;10.10;6.50;;;22.40;38.70;;;;;;5091482;28;20447;-72
2022/08/16 01:40:57;;;;;;;18.80;6.63;;;22.40;39.00;;;;;;5090388;28;20423;-72
2022/08/16 01:43:24;;;;;;;8.10;6.50;;;22.30;39.20;;;;;;5083447;28;20497;-72
2022/08/16 01:45:55;;;;;;;11.13;6.97;;;22.20;39.30;;;;;;5077118;28;20443;-72
2022/08/16 01:48:25;;;;;;;9.40;6.60;;;22.10;39.50;;;;;;5071976;28;20426;-72
2022/08/16 01:50:52;;;;;;;11.43;5.80;;;22.20;40.20;;;;;;5089762;28;20429;-72
2022/08/16 01:53:18;;;;;;;8.90;6.80;;;22.00;40.10;;;;;;5091975;28;20511;-72
2022/08/16 01:55:44;;;;;;;8.60;6.60;;;22.20;39.20;;;;;;5088138;28;20428;-72
2022/08/16 01:58:14;;;;;;;11.17;6.60;;;22.30;39.30;;;;;;5091725;28;20511;-72
2022/08/16 02:00:40;;;;;;;12.23;7.00;;;22.20;39.40;;;;;;5083896;28;20577;-72
2022/08/16 02:03:06;;;;;;;12.77;6.93;;;22.00;40.70;;;;;;5087791;28;20456;-72
2022/08/16 02:05:31;;;;;;;10.50;6.77;;;22.00;40.20;;;;;;5087436;28;20180;-72
2022/08/16 02:07:57;;;;;;;15.33;7.07;;;22.00;40.50;;;;;;5091081;28;20445;-72
2022/08/16 02:10:24;;;;;;;10.07;6.97;;;22.10;40.20;;;;;;5092022;28;20171;-73
2022/08/16 02:12:50;;;;;;;10.23;7.00;;;22.00;39.80;;;;;;5091585;28;20177;-73
2022/08/16 02:15:17;;;;;;;11.77;7.00;;;22.10;39.40;;;;;;5087658;28;21012;-72
2022/08/16 02:17:43;;;;;;;18.03;7.50;;;22.00;40.00;;;;;;5090090;28;20654;-72
2022/08/16 02:20:09;;;;;;;11.40;7.40;;;21.90;39.70;;;;;;5091694;28;20462;-72
2022/08/16 02:22:35;;;;;;;14.33;7.77;;;21.80;40.30;;;;;;5091356;28;20196;-72
2022/08/16 02:25:07;;;;;;;12.27;6.87;;;21.80;41.20;;;;;;5089722;28;20877;-72
2022/08/16 02:27:32;;;;;;;9.93;7.20;;;21.70;40.60;;;;;;5088432;28;20490;-72
2022/08/16 02:29:58;;;;;;;12.33;7.90;;;21.70;40.80;;;;;;5082542;28;20840;-73
2022/08/16 02:32:24;;;;;;;10.57;7.57;;;21.70;41.70;;;;;;5091141;28;20200;-73
2022/08/16 02:34:49;;;;;;;10.00;7.03;;;21.50;41.30;;;;;;5091022;28;20186;-72
2022/08/16 02:37:15;;;;;;;12.33;7.43;;;21.60;41.50;;;;;;5089977;28;20209;-73
2022/08/16 02:39:40;;;;;;;11.20;6.73;;;21.60;41.20;;;;;;5091700;28;20184;-72
2022/08/16 02:42:06;;;;;;;11.17;7.10;;;21.70;41.00;;;;;;5090960;28;20222;-72
2022/08/16 02:44:32;;;;;;;10.50;7.23;;;21.50;41.40;;;;;;5091664;28;20172;-72
2022/08/16 02:46:57;;;;;;;12.53;8.10;;;21.40;41.70;;;;;;5089288;28;20210;-72
2022/08/16 02:49:23;;;;;;;9.97;7.50;;;21.40;41.50;;;;;;5083094;28;20254;-72
2022/08/16 02:51:49;;;;;;;9.00;7.30;;;21.40;41.70;;;;;;5091069;28;20232;-72
2022/08/16 02:54:14;;;;;;;9.30;6.90;;;21.40;43.00;;;;;;5091298;28;20652;-72
2022/08/16 02:56:41;;;;;;;14.13;8.03;;;21.40;41.90;;;;;;5091088;28;20201;-72
2022/08/16 02:59:07;;;;;;;14.30;7.37;;;21.40;41.90;;;;;;5087906;28;20182;-72
2022/08/16 03:01:33;;;;;;;8.67;6.93;;;21.50;41.20;;;;;;5083232;28;21033;-72
2022/08/16 03:04:00;;;;;;;9.50;7.40;;;21.70;40.70;;;;;;5091137;28;20478;-72
2022/08/16 03:06:26;;;;;;;9.33;7.10;;;21.50;42.20;;;;;;5090959;28;20420;-72
2022/08/16 03:08:53;;;;;;;18.23;8.07;;;21.40;41.70;;;;;;5089105;28;20431;-72
2022/08/16 03:11:19;;;;;;;10.73;7.20;;;21.40;41.80;;;;;;5082230;28;20499;-72
2022/08/16 03:13:48;;;;;;;9.97;7.17;;;21.40;41.60;;;;;;5081775;28;20994;-72
2022/08/16 03:16:15;;;;;;;8.80;7.13;;;21.40;42.40;;;;;;5091069;28;20482;-72
2022/08/16 03:18:40;;;;;;;9.40;6.80;;;21.40;43.00;;;;;;5088072;28;20433;-72
2022/08/16 03:21:07;;;;;;;12.07;7.53;;;21.40;43.00;;;;;;5080723;28;20490;-72
2022/08/16 03:23:33;;;;;;;9.87;7.20;;;21.50;41.90;;;;;;5090953;28;20637;-72
2022/08/16 03:25:59;;;;;;;12.43;7.07;;;21.60;41.90;;;;;;5091064;28;20900;-72
2022/08/16 03:28:24;;;;;;;15.30;7.57;;;21.60;41.50;;;;;;5091708;28;20411;-72
2022/08/16 03:30:50;;;;;;;12.77;7.73;;;21.70;41.50;;;;;;5093763;28;20175;-72
2022/08/16 03:33:16;;;;;;;10.90;7.93;;;21.90;40.10;;;;;;5091595;28;20202;-72
2022/08/16 03:35:42;;;;;;;12.00;7.90;;;21.90;40.20;;;;;;5088682;28;20164;-72
2022/08/16 03:38:12;;;;;;;14.23;8.23;;;21.90;40.80;;;;;;5092973;28;20206;-72
2022/08/16 03:40:38;;;;;;;10.43;7.67;;;21.70;41.60;;;;;;5092326;28;20426;-73
2022/08/16 03:43:06;;;;;;;14.17;8.00;;;21.60;41.30;;;;;;5093937;28;20464;-73
2022/08/16 03:45:33;;;;;;;17.70;7.80;;;21.50;41.90;;;;;;5094571;28;20434;-73
2022/08/16 03:47:59;;;;;;;11.83;7.20;;;21.40;43.00;;;;;;5084083;28;20579;-72
2022/08/16 03:50:25;;;;;;;14.60;9.30;;;21.40;43.80;;;;;;5093203;28;20435;-72
2022/08/16 03:52:51;;;;;;;23.10;9.73;;;21.00;42.60;;;;;;5093926;28;20417;-72
2022/08/16 03:55:17;;;;;;;10.83;8.83;;;21.10;43.20;;;;;;5092540;28;20561;-72
2022/08/16 03:57:43;;;;;;;16.40;11.90;;;21.20;42.80;;;;;;5094429;28;20190;-72
2022/08/16 04:00:16;;;;;;;20.83;11.00;;;21.30;42.50;;;;;;5094044;28;20178;-73
2022/08/16 04:02:42;;;;;;;15.47;10.90;;;21.40;42.60;;;;;;5093968;28;20479;-72
2022/08/16 04:05:09;;;;;;;16.70;12.00;;;21.30;42.30;;;;;;5089409;28;22166;-72
2022/08/16 04:07:35;;;;;;;17.20;13.53;;;21.20;42.40;;;;;;5082000;28;20458;-72
2022/08/16 04:10:03;;;;;;;15.03;12.30;;;21.10;42.70;;;;;;5094270;28;20471;-72
2022/08/16 04:12:29;;;;;;;22.30;12.40;;;21.20;42.80;;;;;;5093359;28;20459;-73
2022/08/16 04:14:55;;;;;;;25.93;13.10;;;21.10;42.70;;;;;;5093952;28;20541;-73
2022/08/16 04:17:20;;;;;;;19.10;12.33;;;21.10;42.70;;;;;;5091776;28;20209;-73
2022/08/16 04:19:46;;;;;;;15.43;11.53;;;21.10;43.20;;;;;;5094132;28;20174;-73
2022/08/16 04:22:12;;;;;;;17.20;12.70;;;21.20;42.80;;;;;;5092647;28;20213;-73
2022/08/16 04:24:37;;;;;;;15.27;11.47;;;21.10;42.70;;;;;;5093840;28;20174;-73
2022/08/16 04:27:04;;;;;;;17.27;11.07;;;21.10;43.10;;;;;;5091781;28;20745;-73
2022/08/16 04:29:29;;;;;;;17.60;11.67;;;21.10;43.00;;;;;;5084902;28;20201;-73
2022/08/16 04:31:55;;;;;;;18.17;10.07;;;21.10;43.30;;;;;;5083408;28;21033;-73
2022/08/16 04:34:21;;;;;;;17.50;10.63;;;21.10;43.80;;;;;;5092774;28;20262;-73
2022/08/16 04:36:47;;;;;;;16.07;9.63;;;21.00;43.60;;;;;;5093517;28;20254;-72
2022/08/16 04:39:13;;;;;;;15.90;9.67;;;21.00;43.70;;;;;;5092418;28;20570;-73
2022/08/16 04:41:39;;;;;;;17.43;9.30;;;20.70;44.40;;;;;;5092446;28;20472;-73
2022/08/16 04:44:04;;;;;;;15.43;9.57;;;20.60;45.00;;;;;;5093112;28;20465;-73
2022/08/16 04:46:31;;;;;;;12.83;8.80;;;20.60;45.10;;;;;;5093572;28;20197;-73
2022/08/16 04:48:56;;;;;;;14.43;9.20;;;20.50;45.20;;;;;;5091888;28;20575;-73
2022/08/16 04:51:22;;;;;;;14.20;10.27;;;20.70;45.10;;;;;;5092656;28;20502;-73
2022/08/16 04:53:48;;;;;;;12.87;9.40;;;20.80;44.40;;;;;;5093072;28;20183;-73
2022/08/16 04:56:15;;;;;;;12.47;9.73;;;20.80;43.90;;;;;;5089783;28;20552;-73
2022/08/16 04:58:40;;;;;;;20.23;12.13;;;20.80;44.20;;;;;;5085339;28;20170;-73
2022/08/16 05:01:06;;;;;;;13.80;10.70;;;20.70;44.00;;;;;;5091302;28;20435;-73
2022/08/16 05:03:31;;;;;;;18.10;12.90;;;20.70;44.80;;;;;;5092432;28;20174;-73
2022/08/16 05:05:57;;;;;;;15.70;12.13;;;20.70;44.90;;;;;;5090272;28;20176;-73
2022/08/16 05:08:24;;;;;;;15.87;10.90;;;20.80;45.00;;;;;;5084475;28;20263;-73
2022/08/16 05:10:50;;;;;;;14.30;9.87;;;20.90;44.90;;;;;;5091230;28;20209;-73
2022/08/16 05:13:17;;;;;;;14.67;9.10;;;20.80;44.30;;;;;;5092249;28;21004;-73
2022/08/16 05:15:43;;;;;;;14.57;10.17;;;20.50;44.70;;;;;;5092788;28;20549;-73
2022/08/16 05:18:09;;;;;;;12.13;8.83;;;20.50;45.50;;;;;;5092873;28;20428;-73
2022/08/16 05:20:35;;;;;;;13.40;9.03;;;20.60;44.90;;;;;;5083587;28;21050;-73
2022/08/16 05:23:00;;;;;;;16.70;8.93;;;20.90;44.40;;;;;;5091511;28;20232;-73
2022/08/16 05:25:26;;;;;;;20.23;8.77;;;21.10;43.30;;;;;;5092688;28;20162;-73
2022/08/16 05:27:53;;;;;;;16.43;9.00;;;21.30;42.90;;;;;;5093265;28;20226;-73
2022/08/16 05:30:19;;;;;;;11.40;9.17;;;21.40;43.00;;;;;;5091281;28;20274;-73
2022/08/16 05:32:44;;;;;;;15.90;9.20;;;21.60;43.20;;;;;;5091918;28;20508;-73
2022/08/16 05:35:12;;;;;;;14.27;9.60;;;21.60;43.20;;;;;;5092239;28;20240;-73
2022/08/16 05:37:39;;;;;;;15.43;9.40;;;21.70;42.10;;;;;;5091052;28;20194;-73
2022/08/16 05:40:06;;;;;;;14.37;10.13;;;21.70;42.80;;;;;;5082675;28;20431;-73
2022/08/16 05:42:32;;;;;;;14.43;10.20;;;21.70;41.80;;;;;;5086413;28;21325;-73
2022/08/16 05:44:59;;;;;;;15.70;9.13;;;21.20;42.50;;;;;;5086090;28;20457;-73
2022/08/16 05:47:25;;;;;;;24.43;9.80;;;20.80;43.70;;;;;;5092120;28;20214;-73
2022/08/16 05:49:51;;;;;;;15.70;9.10;;;20.80;44.80;;;;;;5092513;28;20825;-73
2022/08/16 05:52:16;;;;;;;17.50;9.67;;;21.00;43.90;;;;;;5089625;28;20264;-73
2022/08/16 05:54:42;;;;;;;12.63;8.93;;;21.30;43.30;;;;;;5091799;28;20714;-73
2022/08/16 05:57:09;;;;;;;27.30;9.07;;;21.70;43.30;;;;;;5082277;28;20290;-73
2022/08/16 05:59:35;;;;;;;24.90;10.50;;;21.90;42.30;;;;;;5090478;28;20784;-73
2022/08/16 06:02:02;;;;;;;16.73;9.80;;;22.00;41.30;;;;;;5091516;28;20848;-73
2022/08/16 06:04:28;;;;;;;21.20;10.50;;;22.00;41.30;;;;;;5091888;28;20441;-73
2022/08/16 06:06:54;;;;;;;19.77;11.50;;;22.00;41.30;;;;;;5084512;28;20981;-73
2022/08/16 06:09:19;;;;;;;16.17;10.43;;;22.20;41.00;;;;;;5082092;28;20178;-73
2022/08/16 06:11:45;;;;;;;20.87;13.30;;;22.40;41.10;;;;;;5086771;28;20182;-73
2022/08/16 06:14:11;;;;;;;18.80;9.47;;;22.20;40.20;;;;;;5081674;28;20182;-72
2022/08/16 06:16:37;;;;;;;11.77;8.50;;;21.70;41.70;;;;;;5088305;28;20462;-72
2022/08/16 06:19:03;;;;;;;12.00;8.27;;;21.50;43.00;;;;;;5088874;28;20537;-73
2022/08/16 06:21:29;;;;;;;15.83;9.03;;;21.50;43.00;;;;;;5085900;28;20677;-72
2022/08/16 06:23:55;;;;;;;11.53;8.70;;;21.40;43.00;;;;;;5080392;28;20443;-72
2022/08/16 06:26:21;;;;;;;14.80;8.37;;;21.60;42.80;;;;;;5090828;28;20198;-72
2022/08/16 06:28:47;;;;;;;10.63;8.50;;;21.70;42.90;;;;;;5088714;28;20176;-72
2022/08/16 06:31:14;;;;;;;15.40;8.97;;;21.40;43.00;;;;;;5085826;28;20434;-72
2022/08/16 06:33:40;;;;;;;17.20;8.27;;;21.30;43.90;;;;;;5084490;28;20198;-72
2022/08/16 06:36:07;;;;;;;15.17;8.17;;;21.40;43.60;;;;;;5088260;28;20938;-72
2022/08/16 06:38:34;;;;;;;15.10;8.77;;;21.60;43.20;;;;;;5073516;28;20429;-72
2022/08/16 06:41:09;;;;;;;12.87;8.83;;;21.60;43.10;;;;;;5085365;28;20435;-72
2022/08/16 06:43:35;;;;;;;14.80;8.20;;;21.70;43.20;;;;;;5075120;28;20437;-72
2022/08/16 06:46:02;;;;;;;12.60;8.50;;;21.80;43.30;;;;;;5087225;28;20803;-72
2022/08/16 06:48:28;;;;;;;15.77;8.60;;;21.90;43.20;;;;;;5084954;28;20765;-72
2022/08/16 06:50:57;;;;;;;14.00;7.93;;;22.10;42.40;;;;;;5090796;28;20392;-72
2022/08/16 06:53:23;;;;;;;17.37;8.33;;;22.10;42.00;;;;;;5085901;28;20180;-72
2022/08/16 06:55:49;;;;;;;10.90;8.03;;;22.10;42.40;;;;;;5085005;28;20428;-73
2022/08/16 06:58:15;;;;;;;16.67;8.70;;;22.00;42.90;;;;;;5080468;28;20976;-73
2022/08/16 07:00:41;;;;;;;14.40;8.37;;;22.10;42.60;;;;;;5080145;28;20451;-72
2022/08/16 07:03:07;;;;;;;14.27;8.60;;;22.30;42.30;;;;;;5085607;28;20260;-73
2022/08/16 07:05:32;;;;;;;18.57;8.30;;;22.50;41.30;;;;;;5085399;28;20177;-72
2022/08/16 07:08:03;;;;;;;20.10;8.43;;;23.10;39.90;;;;;;5085398;28;20498;-72
2022/08/16 07:10:28;;;;;;;19.73;9.90;;;23.20;39.40;;;;;;5083250;28;20466;-72
2022/08/16 07:12:54;;;;;;;8.93;7.87;;;23.20;39.60;;;;;;5082016;28;20463;-73
2022/08/16 07:15:20;;;;;;;14.27;9.20;;;23.20;38.80;;;;;;5089666;28;21218;-72
2022/08/16 07:17:48;;;;;;;24.07;9.47;;;23.60;39.00;;;;;;5095038;28;20836;-75
2022/08/16 07:20:14;;;;;;;16.10;9.70;;;24.20;36.40;;;;;;5094978;28;20379;-73
2022/08/16 07:22:41;;;;;;;15.97;11.20;;;23.90;37.00;;;;;;5090406;28;20471;-73
2022/08/16 07:25:09;;;;;;;18.87;9.70;;;23.90;36.60;;;;;;5088523;28;20434;-73
2022/08/16 07:27:35;;;;;;;25.53;9.63;;;24.10;36.70;;;;;;5089717;28;20447;-73
2022/08/16 07:30:01;;;;;;;12.03;9.03;;;24.00;35.70;;;;;;5094838;28;20448;-73
2022/08/16 07:32:27;;;;;;;18.07;9.40;;;24.00;35.90;;;;;;5088788;28;20605;-76
2022/08/16 07:34:52;;;;;;;12.20;8.73;;;24.10;35.80;;;;;;5086185;28;20216;-73
2022/08/16 07:37:18;;;;;;;12.53;8.70;;;23.80;35.00;;;;;;5083723;28;20448;-72
2022/08/16 07:39:44;;;;;;;16.13;8.33;;;23.70;35.30;;;;;;5085995;28;20258;-80
2022/08/16 07:42:10;;;;;;;13.23;7.87;;;23.60;35.90;;;;;;5097528;28;20222;-80
2022/08/16 07:44:36;;;;;;;10.50;8.00;;;24.00;35.80;;;;;;5096562;28;20179;-80
2022/08/16 07:47:02;;;;;;;13.00;8.43;;;24.10;35.10;;;;;;5094324;28;20452;-80
2022/08/16 07:49:27;;;;;;;17.07;9.90;;;23.90;34.60;;;;;;5094963;28;20171;-80
2022/08/16 07:51:53;;;;;;;23.60;8.57;;;23.90;35.20;;;;;;5091258;28;20178;-80
2022/08/16 07:54:19;;;;;;;12.07;7.63;;;23.60;36.30;;;;;;5092712;28;20186;-80
2022/08/16 07:56:45;;;;;;;13.53;8.07;;;23.80;36.80;;;;;;5100270;28;20270;-81
2022/08/16 07:59:11;;;;;;;16.33;7.97;;;24.40;34.60;;;;;;5107316;28;20436;-80
2022/08/16 08:01:37;;;;;;;11.17;8.00;;;24.90;33.60;;;;;;5108865;28;20569;-81
2022/08/16 08:04:04;;;;;;;12.90;8.60;;;24.80;33.20;;;;;;5111259;28;20192;-81
2022/08/16 08:06:34;;;;;;;23.33;8.83;;;24.60;33.90;;;;;;5091758;28;20463;-74
2022/08/16 08:09:02;;;;;;;13.00;8.60;;;24.90;33.90;;;;;;5084165;28;20428;-75
2022/08/16 08:11:29;;;;;;;12.80;8.80;;;24.20;34.90;;;;;;5082495;28;20432;-75
2022/08/16 08:13:59;;;;;;;14.13;9.07;;;23.50;36.50;;;;;;5092760;28;20935;-75
2022/08/16 08:16:25;;;;;;;15.07;8.90;;;23.80;35.90;;;;;;5094192;28;20509;-74
2022/08/16 08:18:53;;;;;;;13.93;8.97;;;24.30;34.80;;;;;;5090872;28;20440;-74
2022/08/16 08:21:20;;;;;;;16.53;8.80;;;24.50;35.00;;;;;;5083331;28;20429;-74
2022/08/16 08:23:47;;;;;;;18.23;9.73;;;24.90;32.40;;;;;;5085636;28;20425;-74
2022/08/16 08:26:13;;;;;;;14.40;8.70;;;25.00;32.80;;;;;;5091684;28;20412;-75
2022/08/16 08:28:39;;;;;;;15.83;8.30;;;25.60;31.40;;;;;;5087891;28;20493;-74
2022/08/16 08:31:05;;;;;;;12.70;8.63;;;25.90;30.10;;;;;;5083663;28;20443;-74
2022/08/16 08:33:32;;;;;;;17.20;8.97;;;25.80;31.40;;;;;;5086100;28;20492;-74
2022/08/16 08:36:06;;;;;;;15.33;8.87;;;26.00;31.70;;;;;;5091864;28;20425;-74
2022/08/16 08:38:33;;;;;;;21.53;8.13;;;26.20;30.80;;;;;;5086514;28;20883;-74
2022/08/16 08:40:59;;;;;;;15.30;9.07;;;26.10;30.50;;;;;;5081255;28;20816;-74
2022/08/16 08:43:25;;;;;;;16.03;8.30;;;26.20;30.10;;;;;;5089020;28;20461;-74
2022/08/16 08:45:54;;;;;;;13.73;7.60;;;26.20;30.10;;;;;;5093496;28;20245;-74
2022/08/16 08:48:20;;;;;;;19.20;8.63;;;25.70;30.70;;;;;;5093089;28;20222;-74
2022/08/16 08:50:46;;;;;;;16.43;8.17;;;25.60;31.80;;;;;;5092505;28;20450;-75
2022/08/16 08:53:12;;;;;;;15.57;8.70;;;25.50;30.60;;;;;;5092912;28;20593;-74
2022/08/16 08:55:38;;;;;;;11.23;8.60;;;24.70;32.90;;;;;;5093091;28;20404;-74
2022/08/16 08:58:04;;;;;;;13.03;8.80;;;24.50;33.30;;;;;;5093246;28;20280;-74
2022/08/16 09:00:29;;;;;;;18.40;8.50;;;24.90;33.00;;;;;;5091735;28;20174;-74
2022/08/16 09:02:56;;;;;;;14.80;9.30;;;25.50;30.80;;;;;;5092425;28;20198;-74
2022/08/16 09:05:24;;;;;;;14.60;8.47;;;25.10;31.70;;;;;;5092756;28;20170;-75
2022/08/16 09:07:50;;;;;;;13.47;8.77;;;25.00;32.10;;;;;;5093046;28;20470;-75
2022/08/16 09:10:16;;;;;;;11.83;8.57;;;24.90;31.60;;;;;;5093144;28;20938;-75
2022/08/16 09:12:41;;;;;;;15.37;8.90;;;25.00;32.80;;;;;;5091986;28;20249;-75
2022/08/16 09:15:09;;;;;;;16.17;8.63;;;26.10;30.20;;;;;;5092688;28;20178;-75
2022/08/16 09:17:36;;;;;;;9.93;7.87;;;27.00;28.20;;;;;;5092703;28;20205;-75
2022/08/16 09:20:02;;;;;;;13.47;8.30;;;26.70;28.80;;;;;;5092916;28;20447;-75
2022/08/16 09:22:27;;;;;;;12.50;7.80;;;25.80;29.60;;;;;;5091631;28;20981;-74
2022/08/16 09:24:53;;;;;;;13.70;7.80;;;25.90;29.90;;;;;;5091838;28;20417;-75
2022/08/16 09:27:20;;;;;;;12.40;7.90;;;26.70;28.50;;;;;;5091802;28;20272;-75
2022/08/16 09:29:46;;;;;;;12.20;8.00;;;27.50;27.30;;;;;;5092882;28;20167;-75
2022/08/16 09:32:12;;;;;;;10.63;7.30;;;27.60;26.30;;;;;;5092016;28;20763;-75
2022/08/16 09:34:38;;;;;;;15.47;7.43;;;27.40;27.00;;;;;;5091770;28;20178;-75
2022/08/16 09:37:04;;;;;;;12.77;7.50;;;26.30;28.50;;;;;;5091738;28;20905;-75
2022/08/16 09:39:29;;;;;;;17.13;8.33;;;26.60;28.20;;;;;;5092763;28;20227;-75
2022/08/16 09:41:58;;;;;;;17.33;7.53;;;26.60;27.40;;;;;;5091838;28;20854;-75
2022/08/16 09:44:25;;;;;;;13.13;8.27;;;26.60;28.20;;;;;;5091918;28;20174;-76
2022/08/16 09:46:53;;;;;;;11.40;8.13;;;27.20;27.40;;;;;;5092092;28;20456;-75
2022/08/16 09:49:19;;;;;;;14.30;7.70;;;27.60;25.90;;;;;;5092331;28;20428;-76
2022/08/16 09:51:45;;;;;;;8.47;7.37;;;28.10;26.40;;;;;;5091608;28;20413;-76
2022/08/16 09:54:11;;;;;;;14.63;7.60;;;28.50;24.70;;;;;;5091689;28;20432;-75
2022/08/16 09:56:40;;;;;;;12.70;7.20;;;28.90;24.40;;;;;;5092136;28;20847;-76
2022/08/16 09:59:08;;;;;;;10.47;7.30;;;29.00;24.40;;;;;;5091950;28;20950;-76
2022/08/16 10:01:37;;;;;;;13.03;6.83;;;28.80;24.90;;;;;;5091736;28;20654;-76
2022/08/16 10:04:04;;;;;;;9.73;6.90;;;28.60;24.00;;;;;;5091804;28;20461;-76
2022/08/16 10:06:30;;;;;;;9.90;6.90;;;28.50;24.70;;;;;;5090591;28;20455;-76
2022/08/16 10:08:56;;;;;;;15.10;7.23;;;28.70;24.60;;;;;;5092016;28;20400;-76
2022/08/16 10:14:06;;;;;;;13.23;7.33;;;28.90;23.20;;;;;;5091751;28;20164;-76
2022/08/16 10:16:32;;;;;;;12.13;7.40;;;29.10;24.20;;;;;;5091485;28;20535;-76
2022/08/16 10:18:58;;;;;;;17.33;6.70;;;28.90;24.40;;;;;;5091849;28;20596;-75
2022/08/16 10:21:23;;;;;;;8.73;6.93;;;28.70;23.80;;;;;;5090974;28;20440;-75
2022/08/16 10:23:51;;;;;;;12.80;7.43;;;27.80;24.30;;;;;;5091556;28;20432;-75
2022/08/16 10:26:17;;;;;;;12.30;6.77;;;27.70;25.00;;;;;;5091354;28;20619;-75
2022/08/16 10:28:43;;;;;;;13.80;6.83;;;28.40;24.60;;;;;;5091615;28;20440;-75
2022/08/16 10:31:09;;;;;;;12.17;8.30;;;28.60;23.40;;;;;;5091319;28;20170;-75
2022/08/16 10:33:36;;;;;;;9.93;7.43;;;28.10;24.50;;;;;;5091311;28;20641;-75
2022/08/16 10:36:05;;;;;;;13.77;7.70;;;28.40;23.70;;;;;;5091335;28;20937;-75
2022/08/16 10:38:33;;;;;;;10.07;6.87;;;28.90;23.80;;;;;;5091014;28;20461;-75
2022/08/16 10:40:58;;;;;;;11.47;7.20;;;29.30;22.80;;;;;;5091174;28;20404;-76
2022/08/16 10:43:24;;;;;;;14.57;7.03;;;29.80;23.40;;;;;;5091145;28;20471;-76
2022/08/16 10:45:50;;;;;;;13.93;7.43;;;29.90;21.90;;;;;;5091704;28;20275;-76
2022/08/16 10:48:16;;;;;;;13.37;7.50;;;30.00;21.20;;;;;;5090685;28;20190;-76
2022/08/16 10:50:42;;;;;;;10.20;6.60;;;30.20;21.50;;;;;;5091192;28;20424;-76
2022/08/16 10:53:08;;;;;;;10.13;7.20;;;30.20;21.90;;;;;;5091051;28;20435;-76
2022/08/16 10:55:39;;;;;;;11.93;7.10;;;30.30;20.90;;;;;;5091438;28;20448;-76
2022/08/16 10:58:08;;;;;;;10.67;7.00;;;29.90;21.90;;;;;;5088582;28;20202;-76
2022/08/16 11:00:36;;;;;;;9.13;6.57;;;30.20;20.70;;;;;;5082491;28;20833;-76
2022/08/16 11:03:03;;;;;;;18.40;6.97;;;30.50;20.80;;;;;;5088628;28;20971;-76
2022/08/16 11:05:33;;;;;;;9.20;6.23;;;30.30;21.20;;;;;;5091121;28;20400;-76
2022/08/16 11:08:00;;;;;;;12.87;6.20;;;30.60;20.60;;;;;;5085328;28;20444;-76
2022/08/16 11:10:30;;;;;;;7.00;6.47;;;30.30;20.10;;;;;;5079071;28;20426;-80
2022/08/16 11:12:56;;;;;;;8.90;6.50;;;30.40;20.00;;;;;;5083887;28;20435;-75
2022/08/16 11:15:23;;;;;;;11.70;6.80;;;30.50;20.20;;;;;;5088882;28;20447;-76
2022/08/16 11:17:50;;;;;;;9.30;6.83;;;30.50;20.30;;;;;;5091381;28;20463;-75
2022/08/16 11:20:17;;;;;;;8.93;6.30;;;30.20;21.00;;;;;;5086603;28;20432;-77
2022/08/16 11:22:45;;;;;;;13.50;6.80;;;30.20;20.20;;;;;;5089630;28;21071;-79
2022/08/16 11:25:13;;;;;;;8.57;6.70;;;30.70;18.90;;;;;;5085486;28;20431;-79
2022/08/16 11:27:39;;;;;;;11.20;6.23;;;30.90;19.90;;;;;;5084058;28;20946;-79
2022/08/16 11:30:07;;;;;;;12.70;6.37;;;31.30;19.80;;;;;;5091760;28;20899;-78
2022/08/16 11:32:34;;;;;;;19.20;6.40;;;31.60;18.40;;;;;;5081167;28;20450;-78
2022/08/16 11:35:09;;;;;;;7.07;5.53;;;32.40;17.90;;;;;;5091337;28;20793;-79
2022/08/16 11:37:35;;;;;;;14.50;6.20;;;33.80;17.60;;;;;;5088900;28;20463;-80
2022/08/16 11:40:04;;;;;;;7.90;5.33;;;34.80;14.60;;;;;;5091634;28;20415;-79
2022/08/16 11:42:31;;;;;;;8.87;5.13;;;35.70;13.90;;;;;;5079669;28;20499;-77
2022/08/16 11:44:56;;;;;;;7.27;5.10;;;36.40;13.30;;;;;;5090917;28;20754;-78
2022/08/16 11:47:22;;;;;;;9.77;4.47;;;36.80;11.60;;;;;;5089600;28;20451;-77
2022/08/16 11:49:48;;;;;;;8.77;4.60;;;37.60;10.80;;;;;;5085027;28;20171;-77
2022/08/16 11:52:16;;;;;;;14.20;4.77;;;38.20;11.50;;;;;;5092900;28;20175;-76
2022/08/16 11:54:45;;;;;;;6.13;4.47;;;38.80;9.40;;;;;;5086192;28;20179;-77
2022/08/16 11:57:12;;;;;;;7.90;4.37;;;39.30;8.60;;;;;;5095229;28;20440;-76
2022/08/16 11:59:38;;;;;;;14.70;4.33;;;39.40;8.60;;;;;;5087497;28;20824;-76
2022/08/16 12:02:05;;;;;;;8.63;4.33;;;39.00;9.50;;;;;;5084609;28;20509;-76
2022/08/16 12:04:32;;;;;;;8.43;4.47;;;38.40;8.70;;;;;;5092778;28;20166;-76
2022/08/16 12:07:03;;;;;;;7.33;4.80;;;37.40;9.90;;;;;;5094070;28;20432;-76
2022/08/16 12:09:29;;;;;;;11.50;5.13;;;36.80;10.40;;;;;;5087508;28;20456;-76
2022/08/16 12:11:56;;;;;;;6.73;4.60;;;36.30;11.00;;;;;;5089239;28;20420;-76
2022/08/16 12:14:22;;;;;;;6.10;4.57;;;36.60;12.00;;;;;;5093673;28;20424;-75
2022/08/16 12:16:48;;;;;;;8.10;4.63;;;37.50;10.30;;;;;;5091051;28;20452;-77
2022/08/16 12:19:14;;;;;;;9.03;4.53;;;36.20;10.20;;;;;;5086429;28;20210;-76
2022/08/16 12:21:40;;;;;;;8.53;4.63;;;36.70;12.10;;;;;;5087357;28;20200;-77
2022/08/16 12:24:06;;;;;;;6.83;4.43;;;36.80;10.70;;;;;;5094198;28;20866;-77
2022/08/16 12:26:32;;;;;;;8.73;4.90;;;37.70;10.00;;;;;;5092852;28;20487;-77
2022/08/16 12:29:00;;;;;;;6.37;4.50;;;38.80;8.60;;;;;;5087605;28;20178;-77
2022/08/16 12:31:26;;;;;;;5.50;4.20;;;39.90;7.60;;;;;;5074825;28;20409;-75
2022/08/16 12:33:52;;;;;;;13.73;4.30;;;39.70;8.00;;;;;;5073302;28;20897;-75
2022/08/16 12:36:18;;;;;;;5.90;3.90;;;40.30;6.10;;;;;;5078057;28;20455;-75
2022/08/16 12:38:44;;;;;;;8.10;4.17;;;40.50;6.70;;;;;;5092934;28;20971;-75